sensor_id;sensor_type;location;lat;lon;timestamp;P1;durP1;ratioP1;P2;durP2;ratioP2
42200;SDS011;27869;51.442;7.540;2023-02-28T00:01:08;11.25;;;2.80;;
42200;SDS011;27869;51.442;7.540;2023-02-28T00:03:34;12.13;;;2.65;;
42200;SDS011;27869;51.442;7.540;2023-02-28T00:06:02;11.48;;;2.90;;
42200;SDS011;27869;51.442;7.540;2023-02-28T00:08:30;8.93;;;2.75;;
42200;SDS011;27869;51.442;7.540;2023-02-28T00:11:00;9.57;;;2.75;;
42200;SDS011;27869;51.442;7.540;2023-02-28T00:13:27;10.07;;;2.65;;
42200;SDS011;27869;51.442;7.540;2023-02-28T00:16:04;11.10;;;2.92;;
42200;SDS011;27869;51.442;7.540;2023-02-28T00:18:33;8.60;;;2.88;;
42200;SDS011;27869;51.442;7.540;2023-02-28T00:21:00;9.77;;;2.53;;
42200;SDS011;27869;51.442;7.540;2023-02-28T00:23:27;11.23;;;2.67;;
42200;SDS011;27869;51.442;7.540;2023-02-28T00:25:57;9.73;;;2.90;;
42200;SDS011;27869;51.442;7.540;2023-02-28T00:28:24;10.50;;;2.38;;
42200;SDS011;27869;51.442;7.540;2023-02-28T00:30:51;10.38;;;2.60;;
42200;SDS011;27869;51.442;7.540;2023-02-28T00:33:18;10.65;;;2.70;;
42200;SDS011;27869;51.442;7.540;2023-02-28T00:35:45;9.57;;;2.63;;
42200;SDS011;27869;51.442;7.540;2023-02-28T00:38:13;10.40;;;2.50;;
42200;SDS011;27869;51.442;7.540;2023-02-28T00:40:40;10.02;;;2.45;;
42200;SDS011;27869;51.442;7.540;2023-02-28T00:43:09;10.05;;;2.63;;
42200;SDS011;27869;51.442;7.540;2023-02-28T00:45:36;12.30;;;2.65;;
42200;SDS011;27869;51.442;7.540;2023-02-28T00:48:03;9.20;;;2.60;;
42200;SDS011;27869;51.442;7.540;2023-02-28T00:50:30;10.20;;;2.80;;
42200;SDS011;27869;51.442;7.540;2023-02-28T00:52:57;9.95;;;2.45;;
42200;SDS011;27869;51.442;7.540;2023-02-28T00:55:24;10.63;;;2.67;;
42200;SDS011;27869;51.442;7.540;2023-02-28T00:57:51;10.60;;;2.63;;
42200;SDS011;27869;51.442;7.540;2023-02-28T01:00:19;12.13;;;3.05;;
42200;SDS011;27869;51.442;7.540;2023-02-28T01:02:46;9.20;;;3.08;;
42200;SDS011;27869;51.442;7.540;2023-02-28T01:05:13;10.57;;;3.30;;
42200;SDS011;27869;51.442;7.540;2023-02-28T01:07:40;9.75;;;2.70;;
42200;SDS011;27869;51.442;7.540;2023-02-28T01:10:08;16.90;;;3.15;;
42200;SDS011;27869;51.442;7.540;2023-02-28T01:12:35;9.32;;;2.88;;
42200;SDS011;27869;51.442;7.540;2023-02-28T01:15:03;9.73;;;2.65;;
42200;SDS011;27869;51.442;7.540;2023-02-28T01:17:31;11.27;;;3.47;;
42200;SDS011;27869;51.442;7.540;2023-02-28T01:19:58;11.05;;;3.10;;
42200;SDS011;27869;51.442;7.540;2023-02-28T01:22:25;13.27;;;2.90;;
42200;SDS011;27869;51.442;7.540;2023-02-28T01:24:52;15.30;;;3.40;;
42200;SDS011;27869;51.442;7.540;2023-02-28T01:27:19;12.73;;;3.22;;
42200;SDS011;27869;51.442;7.540;2023-02-28T01:32:16;13.38;;;3.40;;
42200;SDS011;27869;51.442;7.540;2023-02-28T01:34:44;13.75;;;3.35;;
42200;SDS011;27869;51.442;7.540;2023-02-28T01:37:11;11.82;;;3.17;;
42200;SDS011;27869;51.442;7.540;2023-02-28T01:39:38;11.48;;;3.33;;
42200;SDS011;27869;51.442;7.540;2023-02-28T01:42:05;10.80;;;3.25;;
42200;SDS011;27869;51.442;7.540;2023-02-28T01:47:22;10.40;;;2.92;;
42200;SDS011;27869;51.442;7.540;2023-02-28T01:49:53;10.52;;;2.67;;
42200;SDS011;27869;51.442;7.540;2023-02-28T01:52:20;10.38;;;2.92;;
42200;SDS011;27869;51.442;7.540;2023-02-28T01:54:51;11.02;;;2.70;;
42200;SDS011;27869;51.442;7.540;2023-02-28T01:57:20;11.77;;;3.03;;
42200;SDS011;27869;51.442;7.540;2023-02-28T01:59:52;10.02;;;2.35;;
42200;SDS011;27869;51.442;7.540;2023-02-28T02:02:23;11.95;;;2.60;;
42200;SDS011;27869;51.442;7.540;2023-02-28T02:04:53;13.10;;;2.70;;
42200;SDS011;27869;51.442;7.540;2023-02-28T02:07:26;10.82;;;2.83;;
42200;SDS011;27869;51.442;7.540;2023-02-28T02:10:01;12.55;;;2.92;;
42200;SDS011;27869;51.442;7.540;2023-02-28T02:12:33;10.15;;;2.58;;
42200;SDS011;27869;51.442;7.540;2023-02-28T02:15:13;11.05;;;2.88;;
42200;SDS011;27869;51.442;7.540;2023-02-28T02:17:48;10.13;;;2.55;;
42200;SDS011;27869;51.442;7.540;2023-02-28T02:20:42;7.82;;;2.28;;
42200;SDS011;27869;51.442;7.540;2023-02-28T02:35:37;11.45;;;2.42;;
42200;SDS011;27869;51.442;7.540;2023-02-28T02:38:09;7.85;;;2.50;;
42200;SDS011;27869;51.442;7.540;2023-02-28T02:40:42;10.52;;;2.40;;
42200;SDS011;27869;51.442;7.540;2023-02-28T02:43:13;9.40;;;2.25;;
42200;SDS011;27869;51.442;7.540;2023-02-28T02:45:46;8.55;;;2.05;;
42200;SDS011;27869;51.442;7.540;2023-02-28T02:48:18;8.00;;;2.00;;
42200;SDS011;27869;51.442;7.540;2023-02-28T02:50:49;5.95;;;1.92;;
42200;SDS011;27869;51.442;7.540;2023-02-28T02:53:22;6.47;;;1.45;;
42200;SDS011;27869;51.442;7.540;2023-02-28T02:55:54;6.22;;;1.88;;
42200;SDS011;27869;51.442;7.540;2023-02-28T02:58:24;6.35;;;1.63;;
42200;SDS011;27869;51.442;7.540;2023-02-28T03:00:54;5.65;;;1.80;;
42200;SDS011;27869;51.442;7.540;2023-02-28T03:03:24;6.85;;;1.90;;
42200;SDS011;27869;51.442;7.540;2023-02-28T03:05:56;8.43;;;2.03;;
42200;SDS011;27869;51.442;7.540;2023-02-28T03:08:25;7.45;;;2.20;;
42200;SDS011;27869;51.442;7.540;2023-02-28T03:10:55;7.55;;;2.13;;
42200;SDS011;27869;51.442;7.540;2023-02-28T03:16:37;9.13;;;2.60;;
42200;SDS011;27869;51.442;7.540;2023-02-28T03:19:26;9.80;;;2.60;;
42200;SDS011;27869;51.442;7.540;2023-02-28T03:22:22;9.13;;;2.30;;
42200;SDS011;27869;51.442;7.540;2023-02-28T03:24:57;8.48;;;2.42;;
42200;SDS011;27869;51.442;7.540;2023-02-28T03:27:33;8.13;;;2.40;;
42200;SDS011;27869;51.442;7.540;2023-02-28T03:30:06;10.52;;;2.42;;
42200;SDS011;27869;51.442;7.540;2023-02-28T03:32:38;9.00;;;2.22;;
42200;SDS011;27869;51.442;7.540;2023-02-28T03:35:09;8.95;;;2.50;;
42200;SDS011;27869;51.442;7.540;2023-02-28T03:37:42;10.45;;;2.55;;
42200;SDS011;27869;51.442;7.540;2023-02-28T03:40:11;11.85;;;2.78;;
42200;SDS011;27869;51.442;7.540;2023-02-28T03:42:42;10.60;;;2.92;;
42200;SDS011;27869;51.442;7.540;2023-02-28T03:45:13;9.10;;;2.70;;
42200;SDS011;27869;51.442;7.540;2023-02-28T03:47:44;11.05;;;2.75;;
42200;SDS011;27869;51.442;7.540;2023-02-28T03:50:17;11.07;;;2.67;;
42200;SDS011;27869;51.442;7.540;2023-02-28T03:52:50;10.10;;;3.15;;
42200;SDS011;27869;51.442;7.540;2023-02-28T03:55:26;9.93;;;2.97;;
42200;SDS011;27869;51.442;7.540;2023-02-28T03:57:57;12.00;;;3.40;;
42200;SDS011;27869;51.442;7.540;2023-02-28T04:00:28;13.25;;;3.25;;
42200;SDS011;27869;51.442;7.540;2023-02-28T04:03:00;12.75;;;3.22;;
42200;SDS011;27869;51.442;7.540;2023-02-28T04:05:27;11.00;;;3.22;;
42200;SDS011;27869;51.442;7.540;2023-02-28T04:08:04;11.13;;;3.22;;
42200;SDS011;27869;51.442;7.540;2023-02-28T04:10:32;11.43;;;3.40;;
42200;SDS011;27869;51.442;7.540;2023-02-28T04:12:59;10.88;;;3.33;;
42200;SDS011;27869;51.442;7.540;2023-02-28T04:15:26;10.50;;;3.10;;
42200;SDS011;27869;51.442;7.540;2023-02-28T04:17:53;10.98;;;2.83;;
42200;SDS011;27869;51.442;7.540;2023-02-28T04:20:20;10.27;;;2.83;;
42200;SDS011;27869;51.442;7.540;2023-02-28T04:22:46;10.55;;;2.90;;
42200;SDS011;27869;51.442;7.540;2023-02-28T04:25:15;10.00;;;2.80;;
42200;SDS011;27869;51.442;7.540;2023-02-28T04:27:42;11.32;;;3.10;;
42200;SDS011;27869;51.442;7.540;2023-02-28T04:30:10;10.55;;;2.60;;
42200;SDS011;27869;51.442;7.540;2023-02-28T04:32:37;10.73;;;2.55;;
42200;SDS011;27869;51.442;7.540;2023-02-28T04:35:04;10.07;;;2.95;;
42200;SDS011;27869;51.442;7.540;2023-02-28T04:37:32;11.13;;;2.70;;
42200;SDS011;27869;51.442;7.540;2023-02-28T04:39:59;9.70;;;2.70;;
42200;SDS011;27869;51.442;7.540;2023-02-28T04:42:28;9.70;;;2.72;;
42200;SDS011;27869;51.442;7.540;2023-02-28T04:45:00;9.82;;;2.53;;
42200;SDS011;27869;51.442;7.540;2023-02-28T04:47:27;9.75;;;2.60;;
42200;SDS011;27869;51.442;7.540;2023-02-28T04:49:54;9.70;;;2.78;;
42200;SDS011;27869;51.442;7.540;2023-02-28T04:52:21;9.23;;;2.65;;
42200;SDS011;27869;51.442;7.540;2023-02-28T04:54:48;10.93;;;2.63;;
42200;SDS011;27869;51.442;7.540;2023-02-28T04:57:15;9.07;;;2.63;;
42200;SDS011;27869;51.442;7.540;2023-02-28T04:59:43;11.73;;;2.78;;
42200;SDS011;27869;51.442;7.540;2023-02-28T05:02:10;8.98;;;2.38;;
42200;SDS011;27869;51.442;7.540;2023-02-28T05:04:37;9.25;;;2.47;;
42200;SDS011;27869;51.442;7.540;2023-02-28T05:07:03;9.70;;;2.67;;
42200;SDS011;27869;51.442;7.540;2023-02-28T05:09:30;9.07;;;2.55;;
42200;SDS011;27869;51.442;7.540;2023-02-28T05:11:58;9.57;;;2.80;;
42200;SDS011;27869;51.442;7.540;2023-02-28T05:14:25;10.40;;;2.70;;
42200;SDS011;27869;51.442;7.540;2023-02-28T05:16:54;10.52;;;2.60;;
42200;SDS011;27869;51.442;7.540;2023-02-28T05:19:20;10.65;;;3.05;;
42200;SDS011;27869;51.442;7.540;2023-02-28T05:21:49;12.23;;;2.72;;
42200;SDS011;27869;51.442;7.540;2023-02-28T05:24:17;10.27;;;2.53;;
42200;SDS011;27869;51.442;7.540;2023-02-28T05:26:47;8.70;;;2.45;;
42200;SDS011;27869;51.442;7.540;2023-02-28T05:29:17;12.23;;;2.70;;
42200;SDS011;27869;51.442;7.540;2023-02-28T05:31:44;10.68;;;2.72;;
42200;SDS011;27869;51.442;7.540;2023-02-28T05:34:12;9.98;;;2.60;;
42200;SDS011;27869;51.442;7.540;2023-02-28T05:36:40;12.15;;;2.70;;
42200;SDS011;27869;51.442;7.540;2023-02-28T05:39:08;9.88;;;2.28;;
42200;SDS011;27869;51.442;7.540;2023-02-28T05:41:38;10.80;;;2.83;;
42200;SDS011;27869;51.442;7.540;2023-02-28T05:44:05;9.00;;;2.40;;
42200;SDS011;27869;51.442;7.540;2023-02-28T05:46:32;11.15;;;2.65;;
42200;SDS011;27869;51.442;7.540;2023-02-28T05:48:59;9.68;;;2.70;;
42200;SDS011;27869;51.442;7.540;2023-02-28T05:51:28;11.55;;;3.03;;
42200;SDS011;27869;51.442;7.540;2023-02-28T05:53:58;9.35;;;2.75;;
42200;SDS011;27869;51.442;7.540;2023-02-28T05:56:25;8.60;;;2.67;;
42200;SDS011;27869;51.442;7.540;2023-02-28T05:58:52;10.65;;;2.50;;
42200;SDS011;27869;51.442;7.540;2023-02-28T06:01:20;11.98;;;2.92;;
42200;SDS011;27869;51.442;7.540;2023-02-28T06:03:49;11.05;;;2.78;;
42200;SDS011;27869;51.442;7.540;2023-02-28T06:06:16;11.38;;;2.50;;
42200;SDS011;27869;51.442;7.540;2023-02-28T06:08:44;9.85;;;2.53;;
42200;SDS011;27869;51.442;7.540;2023-02-28T06:11:11;11.07;;;2.75;;
42200;SDS011;27869;51.442;7.540;2023-02-28T06:13:38;12.38;;;3.10;;
42200;SDS011;27869;51.442;7.540;2023-02-28T06:16:05;10.13;;;2.80;;
42200;SDS011;27869;51.442;7.540;2023-02-28T06:18:34;11.13;;;2.83;;
42200;SDS011;27869;51.442;7.540;2023-02-28T06:21:01;12.23;;;3.00;;
42200;SDS011;27869;51.442;7.540;2023-02-28T06:23:28;13.02;;;2.95;;
42200;SDS011;27869;51.442;7.540;2023-02-28T06:25:56;10.65;;;2.63;;
42200;SDS011;27869;51.442;7.540;2023-02-28T06:28:23;10.35;;;3.05;;
42200;SDS011;27869;51.442;7.540;2023-02-28T06:30:51;9.82;;;2.53;;
42200;SDS011;27869;51.442;7.540;2023-02-28T06:33:18;9.70;;;2.53;;
42200;SDS011;27869;51.442;7.540;2023-02-28T06:35:46;12.27;;;3.50;;
42200;SDS011;27869;51.442;7.540;2023-02-28T06:38:14;12.27;;;3.05;;
42200;SDS011;27869;51.442;7.540;2023-02-28T06:40:40;12.02;;;2.78;;
42200;SDS011;27869;51.442;7.540;2023-02-28T06:43:10;12.45;;;3.50;;
42200;SDS011;27869;51.442;7.540;2023-02-28T06:45:40;13.73;;;2.95;;
42200;SDS011;27869;51.442;7.540;2023-02-28T06:48:08;11.98;;;3.00;;
42200;SDS011;27869;51.442;7.540;2023-02-28T06:50:35;10.00;;;2.88;;
42200;SDS011;27869;51.442;7.540;2023-02-28T06:53:02;10.93;;;2.85;;
42200;SDS011;27869;51.442;7.540;2023-02-28T06:55:29;10.85;;;3.15;;
42200;SDS011;27869;51.442;7.540;2023-02-28T06:57:57;11.38;;;2.95;;
42200;SDS011;27869;51.442;7.540;2023-02-28T07:00:25;12.32;;;2.85;;
42200;SDS011;27869;51.442;7.540;2023-02-28T07:02:54;15.57;;;3.03;;
42200;SDS011;27869;51.442;7.540;2023-02-28T07:05:21;18.13;;;3.30;;
42200;SDS011;27869;51.442;7.540;2023-02-28T07:07:48;15.73;;;3.47;;
42200;SDS011;27869;51.442;7.540;2023-02-28T07:10:17;12.50;;;3.20;;
42200;SDS011;27869;51.442;7.540;2023-02-28T07:12:44;12.40;;;3.10;;
42200;SDS011;27869;51.442;7.540;2023-02-28T07:15:11;10.73;;;3.28;;
42200;SDS011;27869;51.442;7.540;2023-02-28T07:17:39;12.98;;;3.67;;
42200;SDS011;27869;51.442;7.540;2023-02-28T07:20:07;12.45;;;3.35;;
42200;SDS011;27869;51.442;7.540;2023-02-28T07:22:35;11.40;;;3.45;;
42200;SDS011;27869;51.442;7.540;2023-02-28T07:25:02;14.10;;;3.58;;
42200;SDS011;27869;51.442;7.540;2023-02-28T07:27:29;14.75;;;3.55;;
42200;SDS011;27869;51.442;7.540;2023-02-28T07:29:56;13.35;;;3.90;;
42200;SDS011;27869;51.442;7.540;2023-02-28T07:32:26;13.00;;;3.92;;
42200;SDS011;27869;51.442;7.540;2023-02-28T07:34:55;14.23;;;3.75;;
42200;SDS011;27869;51.442;7.540;2023-02-28T07:37:22;13.02;;;3.85;;
42200;SDS011;27869;51.442;7.540;2023-02-28T07:39:49;13.98;;;3.97;;
42200;SDS011;27869;51.442;7.540;2023-02-28T07:42:16;15.32;;;4.53;;
42200;SDS011;27869;51.442;7.540;2023-02-28T07:44:43;14.88;;;4.63;;
42200;SDS011;27869;51.442;7.540;2023-02-28T07:47:10;13.02;;;3.97;;
42200;SDS011;27869;51.442;7.540;2023-02-28T07:49:37;14.02;;;4.03;;
42200;SDS011;27869;51.442;7.540;2023-02-28T07:52:06;17.52;;;4.40;;
42200;SDS011;27869;51.442;7.540;2023-02-28T07:54:33;14.70;;;4.63;;
42200;SDS011;27869;51.442;7.540;2023-02-28T07:57:00;16.83;;;4.80;;
42200;SDS011;27869;51.442;7.540;2023-02-28T07:59:27;14.18;;;4.15;;
42200;SDS011;27869;51.442;7.540;2023-02-28T08:01:54;17.77;;;4.78;;
42200;SDS011;27869;51.442;7.540;2023-02-28T08:04:23;14.60;;;4.50;;
42200;SDS011;27869;51.442;7.540;2023-02-28T08:06:49;15.68;;;5.00;;
42200;SDS011;27869;51.442;7.540;2023-02-28T08:09:19;16.63;;;4.20;;
42200;SDS011;27869;51.442;7.540;2023-02-28T08:11:46;17.33;;;4.63;;
42200;SDS011;27869;51.442;7.540;2023-02-28T08:14:13;10.73;;;3.58;;
42200;SDS011;27869;51.442;7.540;2023-02-28T08:16:40;15.90;;;4.38;;
42200;SDS011;27869;51.442;7.540;2023-02-28T08:19:08;14.88;;;4.13;;
42200;SDS011;27869;51.442;7.540;2023-02-28T08:21:34;11.82;;;3.58;;
42200;SDS011;27869;51.442;7.540;2023-02-28T08:24:01;11.15;;;3.58;;
42200;SDS011;27869;51.442;7.540;2023-02-28T08:26:30;10.15;;;2.90;;
42200;SDS011;27869;51.442;7.540;2023-02-28T08:28:56;12.57;;;3.15;;
42200;SDS011;27869;51.442;7.540;2023-02-28T08:31:23;16.67;;;3.80;;
42200;SDS011;27869;51.442;7.540;2023-02-28T08:33:50;17.55;;;5.53;;
42200;SDS011;27869;51.442;7.540;2023-02-28T08:36:18;19.92;;;5.45;;
42200;SDS011;27869;51.442;7.540;2023-02-28T08:38:45;15.25;;;4.20;;
42200;SDS011;27869;51.442;7.540;2023-02-28T08:41:12;12.98;;;3.72;;
42200;SDS011;27869;51.442;7.540;2023-02-28T08:43:41;9.32;;;2.67;;
42200;SDS011;27869;51.442;7.540;2023-02-28T08:46:08;10.50;;;2.85;;
42200;SDS011;27869;51.442;7.540;2023-02-28T08:48:38;12.73;;;3.25;;
42200;SDS011;27869;51.442;7.540;2023-02-28T08:51:06;10.45;;;2.58;;
42200;SDS011;27869;51.442;7.540;2023-02-28T08:53:35;10.32;;;3.13;;
42200;SDS011;27869;51.442;7.540;2023-02-28T08:56:03;9.07;;;2.67;;
42200;SDS011;27869;51.442;7.540;2023-02-28T08:58:32;10.80;;;3.17;;
42200;SDS011;27869;51.442;7.540;2023-02-28T09:01:06;9.45;;;2.90;;
42200;SDS011;27869;51.442;7.540;2023-02-28T09:03:34;9.77;;;2.88;;
42200;SDS011;27869;51.442;7.540;2023-02-28T09:06:01;13.32;;;3.28;;
42200;SDS011;27869;51.442;7.540;2023-02-28T09:08:29;11.57;;;2.92;;
42200;SDS011;27869;51.442;7.540;2023-02-28T09:10:57;9.35;;;2.40;;
42200;SDS011;27869;51.442;7.540;2023-02-28T09:13:25;9.43;;;2.67;;
42200;SDS011;27869;51.442;7.540;2023-02-28T09:15:52;9.23;;;2.55;;
42200;SDS011;27869;51.442;7.540;2023-02-28T09:18:20;8.77;;;2.58;;
42200;SDS011;27869;51.442;7.540;2023-02-28T09:20:47;10.45;;;2.50;;
42200;SDS011;27869;51.442;7.540;2023-02-28T09:23:15;11.95;;;2.65;;
42200;SDS011;27869;51.442;7.540;2023-02-28T09:25:46;10.50;;;2.63;;
42200;SDS011;27869;51.442;7.540;2023-02-28T09:28:14;10.52;;;2.88;;
42200;SDS011;27869;51.442;7.540;2023-02-28T09:30:41;14.00;;;3.60;;
42200;SDS011;27869;51.442;7.540;2023-02-28T09:33:10;12.32;;;3.15;;
42200;SDS011;27869;51.442;7.540;2023-02-28T09:35:38;11.43;;;3.13;;
42200;SDS011;27869;51.442;7.540;2023-02-28T09:38:05;15.60;;;3.17;;
42200;SDS011;27869;51.442;7.540;2023-02-28T09:40:35;11.35;;;2.88;;
42200;SDS011;27869;51.442;7.540;2023-02-28T09:43:03;11.75;;;3.53;;
42200;SDS011;27869;51.442;7.540;2023-02-28T09:45:31;13.63;;;3.83;;
42200;SDS011;27869;51.442;7.540;2023-02-28T09:48:02;12.50;;;3.60;;
42200;SDS011;27869;51.442;7.540;2023-02-28T09:50:33;20.73;;;3.83;;
42200;SDS011;27869;51.442;7.540;2023-02-28T09:53:15;12.50;;;3.40;;
42200;SDS011;27869;51.442;7.540;2023-02-28T09:55:47;12.65;;;3.25;;
42200;SDS011;27869;51.442;7.540;2023-02-28T09:58:18;11.88;;;2.80;;
42200;SDS011;27869;51.442;7.540;2023-02-28T10:00:54;11.95;;;2.75;;
42200;SDS011;27869;51.442;7.540;2023-02-28T10:03:27;8.82;;;2.33;;
42200;SDS011;27869;51.442;7.540;2023-02-28T10:06:02;9.90;;;2.28;;
42200;SDS011;27869;51.442;7.540;2023-02-28T10:08:35;7.25;;;2.10;;
42200;SDS011;27869;51.442;7.540;2023-02-28T10:11:08;10.50;;;2.40;;
42200;SDS011;27869;51.442;7.540;2023-02-28T10:13:39;6.93;;;2.08;;
42200;SDS011;27869;51.442;7.540;2023-02-28T10:16:16;7.75;;;1.92;;
42200;SDS011;27869;51.442;7.540;2023-02-28T10:18:49;7.97;;;1.90;;
42200;SDS011;27869;51.442;7.540;2023-02-28T10:21:19;8.23;;;2.03;;
42200;SDS011;27869;51.442;7.540;2023-02-28T10:23:53;8.40;;;2.38;;
42200;SDS011;27869;51.442;7.540;2023-02-28T10:26:27;13.73;;;2.53;;
42200;SDS011;27869;51.442;7.540;2023-02-28T10:28:57;9.48;;;2.33;;
42200;SDS011;27869;51.442;7.540;2023-02-28T10:31:24;7.25;;;2.00;;
42200;SDS011;27869;51.442;7.540;2023-02-28T10:33:51;6.28;;;1.70;;
42200;SDS011;27869;51.442;7.540;2023-02-28T10:36:18;9.52;;;1.95;;
42200;SDS011;27869;51.442;7.540;2023-02-28T10:38:49;7.22;;;2.03;;
42200;SDS011;27869;51.442;7.540;2023-02-28T10:41:26;6.38;;;1.63;;
42200;SDS011;27869;51.442;7.540;2023-02-28T10:46:41;9.18;;;1.48;;
42200;SDS011;27869;51.442;7.540;2023-02-28T10:49:13;8.18;;;1.70;;
42200;SDS011;27869;51.442;7.540;2023-02-28T10:51:43;5.95;;;1.50;;
42200;SDS011;27869;51.442;7.540;2023-02-28T10:54:18;7.68;;;1.60;;
42200;SDS011;27869;51.442;7.540;2023-02-28T10:57:08;8.05;;;1.90;;
42200;SDS011;27869;51.442;7.540;2023-02-28T10:59:42;6.90;;;1.83;;
42200;SDS011;27869;51.442;7.540;2023-02-28T11:04:59;6.75;;;1.73;;
42200;SDS011;27869;51.442;7.540;2023-02-28T11:07:26;8.70;;;2.08;;
42200;SDS011;27869;51.442;7.540;2023-02-28T11:09:55;6.72;;;1.90;;
42200;SDS011;27869;51.442;7.540;2023-02-28T11:12:25;5.50;;;1.75;;
42200;SDS011;27869;51.442;7.540;2023-02-28T11:14:55;6.68;;;1.92;;
42200;SDS011;27869;51.442;7.540;2023-02-28T11:17:24;7.38;;;1.67;;
42200;SDS011;27869;51.442;7.540;2023-02-28T11:19:54;6.35;;;1.60;;
42200;SDS011;27869;51.442;7.540;2023-02-28T11:24:54;5.65;;;1.65;;
42200;SDS011;27869;51.442;7.540;2023-02-28T11:27:25;5.50;;;1.60;;
42200;SDS011;27869;51.442;7.540;2023-02-28T11:30:22;9.10;;;1.90;;
42200;SDS011;27869;51.442;7.540;2023-02-28T11:32:53;8.32;;;2.10;;
42200;SDS011;27869;51.442;7.540;2023-02-28T11:35:23;5.93;;;1.67;;
42200;SDS011;27869;51.442;7.540;2023-02-28T11:37:52;7.03;;;1.60;;
42200;SDS011;27869;51.442;7.540;2023-02-28T11:40:22;6.70;;;1.70;;
42200;SDS011;27869;51.442;7.540;2023-02-28T11:42:59;7.82;;;2.10;;
42200;SDS011;27869;51.442;7.540;2023-02-28T11:45:42;6.00;;;1.70;;
42200;SDS011;27869;51.442;7.540;2023-02-28T11:48:17;6.38;;;1.73;;
42200;SDS011;27869;51.442;7.540;2023-02-28T11:50:51;6.53;;;1.80;;
42200;SDS011;27869;51.442;7.540;2023-02-28T11:53:37;7.32;;;2.00;;
42200;SDS011;27869;51.442;7.540;2023-02-28T11:56:18;8.07;;;2.10;;
42200;SDS011;27869;51.442;7.540;2023-02-28T11:58:53;4.82;;;1.60;;
42200;SDS011;27869;51.442;7.540;2023-02-28T12:01:33;7.18;;;1.63;;
42200;SDS011;27869;51.442;7.540;2023-02-28T12:04:16;7.80;;;1.80;;
42200;SDS011;27869;51.442;7.540;2023-02-28T12:06:52;7.13;;;1.95;;
42200;SDS011;27869;51.442;7.540;2023-02-28T12:09:36;9.07;;;2.05;;
42200;SDS011;27869;51.442;7.540;2023-02-28T12:12:18;7.22;;;1.92;;
42200;SDS011;27869;51.442;7.540;2023-02-28T12:14:54;6.57;;;1.70;;
42200;SDS011;27869;51.442;7.540;2023-02-28T12:17:39;6.78;;;1.95;;
42200;SDS011;27869;51.442;7.540;2023-02-28T12:20:16;7.43;;;1.80;;
42200;SDS011;27869;51.442;7.540;2023-02-28T12:22:46;10.68;;;1.85;;
42200;SDS011;27869;51.442;7.540;2023-02-28T12:25:21;8.07;;;2.00;;
42200;SDS011;27869;51.442;7.540;2023-02-28T12:27:55;6.10;;;1.73;;
42200;SDS011;27869;51.442;7.540;2023-02-28T12:30:26;9.25;;;2.15;;
42200;SDS011;27869;51.442;7.540;2023-02-28T12:32:56;7.43;;;2.22;;
42200;SDS011;27869;51.442;7.540;2023-02-28T12:35:32;6.80;;;2.08;;
42200;SDS011;27869;51.442;7.540;2023-02-28T12:38:04;6.57;;;1.90;;
42200;SDS011;27869;51.442;7.540;2023-02-28T12:40:41;6.95;;;2.08;;
42200;SDS011;27869;51.442;7.540;2023-02-28T12:45:41;8.05;;;2.13;;
42200;SDS011;27869;51.442;7.540;2023-02-28T12:48:15;7.65;;;2.17;;
42200;SDS011;27869;51.442;7.540;2023-02-28T12:50:50;7.93;;;2.20;;
42200;SDS011;27869;51.442;7.540;2023-02-28T12:53:18;7.47;;;2.30;;
42200;SDS011;27869;51.442;7.540;2023-02-28T12:55:56;8.45;;;2.47;;
42200;SDS011;27869;51.442;7.540;2023-02-28T12:58:33;8.02;;;2.22;;
42200;SDS011;27869;51.442;7.540;2023-02-28T13:01:08;11.10;;;2.15;;
42200;SDS011;27869;51.442;7.540;2023-02-28T13:04:05;6.95;;;2.13;;
42200;SDS011;27869;51.442;7.540;2023-02-28T13:06:59;9.77;;;2.17;;
42200;SDS011;27869;51.442;7.540;2023-02-28T13:09:38;9.73;;;2.33;;
42200;SDS011;27869;51.442;7.540;2023-02-28T13:12:12;7.55;;;2.15;;
42200;SDS011;27869;51.442;7.540;2023-02-28T13:14:41;10.38;;;2.38;;
42200;SDS011;27869;51.442;7.540;2023-02-28T13:17:12;8.32;;;2.10;;
42200;SDS011;27869;51.442;7.540;2023-02-28T13:19:45;9.07;;;2.08;;
42200;SDS011;27869;51.442;7.540;2023-02-28T13:22:36;9.48;;;2.28;;
42200;SDS011;27869;51.442;7.540;2023-02-28T13:28:12;9.52;;;2.30;;
42200;SDS011;27869;51.442;7.540;2023-02-28T13:31:05;8.50;;;2.13;;
42200;SDS011;27869;51.442;7.540;2023-02-28T13:33:32;8.32;;;2.22;;
42200;SDS011;27869;51.442;7.540;2023-02-28T13:36:08;9.35;;;2.47;;
42200;SDS011;27869;51.442;7.540;2023-02-28T13:38:38;8.55;;;2.10;;
42200;SDS011;27869;51.442;7.540;2023-02-28T13:44:10;6.90;;;1.92;;
42200;SDS011;27869;51.442;7.540;2023-02-28T13:49:40;9.68;;;2.60;;
42200;SDS011;27869;51.442;7.540;2023-02-28T13:52:10;9.13;;;2.63;;
42200;SDS011;27869;51.442;7.540;2023-02-28T13:54:45;10.88;;;2.10;;
42200;SDS011;27869;51.442;7.540;2023-02-28T13:57:33;6.40;;;2.00;;
42200;SDS011;27869;51.442;7.540;2023-02-28T14:00:15;8.77;;;2.45;;
42200;SDS011;27869;51.442;7.540;2023-02-28T14:05:38;10.35;;;2.33;;
42200;SDS011;27869;51.442;7.540;2023-02-28T14:08:06;8.68;;;2.33;;
42200;SDS011;27869;51.442;7.540;2023-02-28T14:10:39;13.20;;;3.13;;
42200;SDS011;27869;51.442;7.540;2023-02-28T14:13:13;12.13;;;2.67;;
42200;SDS011;27869;51.442;7.540;2023-02-28T14:16:09;7.97;;;2.17;;
42200;SDS011;27869;51.442;7.540;2023-02-28T14:18:37;7.95;;;2.03;;
42200;SDS011;27869;51.442;7.540;2023-02-28T14:21:11;7.80;;;2.20;;
42200;SDS011;27869;51.442;7.540;2023-02-28T14:27:05;7.45;;;2.10;;
42200;SDS011;27869;51.442;7.540;2023-02-28T14:30:03;9.45;;;2.55;;
42200;SDS011;27869;51.442;7.540;2023-02-28T14:32:44;8.85;;;2.67;;
42200;SDS011;27869;51.442;7.540;2023-02-28T14:35:29;10.13;;;2.70;;
42200;SDS011;27869;51.442;7.540;2023-02-28T14:38:13;10.25;;;2.30;;
42200;SDS011;27869;51.442;7.540;2023-02-28T14:40:43;7.40;;;2.50;;
42200;SDS011;27869;51.442;7.540;2023-02-28T14:43:18;8.98;;;2.42;;
42200;SDS011;27869;51.442;7.540;2023-02-28T14:45:49;9.77;;;2.90;;
42200;SDS011;27869;51.442;7.540;2023-02-28T14:48:17;10.05;;;2.67;;
42200;SDS011;27869;51.442;7.540;2023-02-28T14:50:48;8.38;;;2.35;;
42200;SDS011;27869;51.442;7.540;2023-02-28T14:53:19;7.97;;;2.38;;
42200;SDS011;27869;51.442;7.540;2023-02-28T14:55:48;8.48;;;2.47;;
42200;SDS011;27869;51.442;7.540;2023-02-28T14:58:27;9.70;;;2.55;;
42200;SDS011;27869;51.442;7.540;2023-02-28T15:00:56;9.27;;;2.50;;
42200;SDS011;27869;51.442;7.540;2023-02-28T15:03:29;8.88;;;2.50;;
42200;SDS011;27869;51.442;7.540;2023-02-28T15:05:59;8.60;;;2.45;;
42200;SDS011;27869;51.442;7.540;2023-02-28T15:08:28;8.45;;;2.25;;
42200;SDS011;27869;51.442;7.540;2023-02-28T15:11:00;9.43;;;2.55;;
42200;SDS011;27869;51.442;7.540;2023-02-28T15:13:31;9.10;;;2.63;;
42200;SDS011;27869;51.442;7.540;2023-02-28T15:16:03;8.82;;;2.47;;
42200;SDS011;27869;51.442;7.540;2023-02-28T15:18:35;8.48;;;2.63;;
42200;SDS011;27869;51.442;7.540;2023-02-28T15:21:11;11.02;;;2.63;;
42200;SDS011;27869;51.442;7.540;2023-02-28T15:23:41;7.43;;;2.35;;
42200;SDS011;27869;51.442;7.540;2023-02-28T15:26:12;10.23;;;2.55;;
42200;SDS011;27869;51.442;7.540;2023-02-28T15:28:41;8.73;;;2.63;;
42200;SDS011;27869;51.442;7.540;2023-02-28T15:31:18;7.65;;;2.40;;
42200;SDS011;27869;51.442;7.540;2023-02-28T15:33:52;9.77;;;2.50;;
42200;SDS011;27869;51.442;7.540;2023-02-28T15:36:20;7.95;;;2.33;;
42200;SDS011;27869;51.442;7.540;2023-02-28T15:38:58;8.65;;;2.60;;
42200;SDS011;27869;51.442;7.540;2023-02-28T15:41:26;9.27;;;2.40;;
42200;SDS011;27869;51.442;7.540;2023-02-28T15:44:15;7.63;;;2.22;;
42200;SDS011;27869;51.442;7.540;2023-02-28T15:46:56;8.77;;;2.53;;
42200;SDS011;27869;51.442;7.540;2023-02-28T15:49:26;11.40;;;2.60;;